sensor_id;sensor_type;location;lat;lon;timestamp;P1;durP1;ratioP1;P2;durP2;ratioP2
21675;SDS011;10999;51.332;9.458;2023-04-01T00:01:03;6.55;;;1.13;;
21675;SDS011;10999;51.332;9.458;2023-04-01T00:03:32;3.78;;;1.30;;
21675;SDS011;10999;51.332;9.458;2023-04-01T00:05:59;4.22;;;1.35;;
21675;SDS011;10999;51.332;9.458;2023-04-01T00:08:27;4.70;;;1.17;;
21675;SDS011;10999;51.332;9.458;2023-04-01T00:10:54;6.63;;;1.17;;
21675;SDS011;10999;51.332;9.458;2023-04-01T00:13:21;5.95;;;1.33;;
21675;SDS011;10999;51.332;9.458;2023-04-01T00:15:48;6.72;;;1.15;;
21675;SDS011;10999;51.332;9.458;2023-04-01T00:18:15;4.65;;;1.25;;
21675;SDS011;10999;51.332;9.458;2023-04-01T00:20:43;2.97;;;1.10;;
21675;SDS011;10999;51.332;9.458;2023-04-01T00:23:16;4.38;;;1.27;;
21675;SDS011;10999;51.332;9.458;2023-04-01T00:25:44;6.25;;;1.17;;
21675;SDS011;10999;51.332;9.458;2023-04-01T00:28:14;3.28;;;0.98;;
21675;SDS011;10999;51.332;9.458;2023-04-01T00:30:42;4.38;;;1.02;;
21675;SDS011;10999;51.332;9.458;2023-04-01T00:33:09;6.32;;;1.20;;
21675;SDS011;10999;51.332;9.458;2023-04-01T00:35:36;6.65;;;1.45;;
21675;SDS011;10999;51.332;9.458;2023-04-01T00:38:03;8.50;;;1.38;;
21675;SDS011;10999;51.332;9.458;2023-04-01T00:40:31;7.05;;;1.30;;
21675;SDS011;10999;51.332;9.458;2023-04-01T00:43:02;7.63;;;1.10;;
21675;SDS011;10999;51.332;9.458;2023-04-01T00:45:36;7.78;;;1.33;;
21675;SDS011;10999;51.332;9.458;2023-04-01T00:48:06;5.97;;;0.80;;
21675;SDS011;10999;51.332;9.458;2023-04-01T00:50:36;5.90;;;1.70;;
21675;SDS011;10999;51.332;9.458;2023-04-01T00:53:05;7.05;;;1.23;;
21675;SDS011;10999;51.332;9.458;2023-04-01T00:55:35;5.65;;;1.45;;
21675;SDS011;10999;51.332;9.458;2023-04-01T00:58:05;6.65;;;1.05;;
21675;SDS011;10999;51.332;9.458;2023-04-01T01:00:37;6.28;;;1.23;;
21675;SDS011;10999;51.332;9.458;2023-04-01T01:03:04;3.97;;;1.10;;
21675;SDS011;10999;51.332;9.458;2023-04-01T01:11:05;5.20;;;0.82;;
21675;SDS011;10999;51.332;9.458;2023-04-01T01:13:49;5.05;;;1.25;;
21675;SDS011;10999;51.332;9.458;2023-04-01T01:18:55;8.77;;;1.50;;
21675;SDS011;10999;51.332;9.458;2023-04-01T01:27:09;4.97;;;0.98;;
21675;SDS011;10999;51.332;9.458;2023-04-01T01:35:36;5.95;;;1.33;;
21675;SDS011;10999;51.332;9.458;2023-04-01T01:38:08;2.97;;;1.10;;
21675;SDS011;10999;51.332;9.458;2023-04-01T01:40:41;5.30;;;1.13;;
21675;SDS011;10999;51.332;9.458;2023-04-01T01:43:11;4.03;;;0.90;;
21675;SDS011;10999;51.332;9.458;2023-04-01T01:45:46;5.63;;;1.52;;
21675;SDS011;10999;51.332;9.458;2023-04-01T01:48:15;5.38;;;1.27;;
21675;SDS011;10999;51.332;9.458;2023-04-01T01:50:43;5.28;;;1.25;;
21675;SDS011;10999;51.332;9.458;2023-04-01T01:53:12;4.78;;;1.33;;
21675;SDS011;10999;51.332;9.458;2023-04-01T01:55:41;4.93;;;1.27;;
21675;SDS011;10999;51.332;9.458;2023-04-01T01:58:28;4.22;;;1.27;;
21675;SDS011;10999;51.332;9.458;2023-04-01T02:01:02;7.18;;;1.80;;
21675;SDS011;10999;51.332;9.458;2023-04-01T02:03:33;4.30;;;1.23;;
21675;SDS011;10999;51.332;9.458;2023-04-01T02:06:04;3.60;;;1.10;;
21675;SDS011;10999;51.332;9.458;2023-04-01T02:11:08;8.40;;;1.20;;
21675;SDS011;10999;51.332;9.458;2023-04-01T02:13:46;4.30;;;1.35;;
21675;SDS011;10999;51.332;9.458;2023-04-01T02:18:53;8.18;;;1.67;;
21675;SDS011;10999;51.332;9.458;2023-04-01T02:21:22;5.00;;;1.40;;
21675;SDS011;10999;51.332;9.458;2023-04-01T02:23:51;3.05;;;1.77;;
21675;SDS011;10999;51.332;9.458;2023-04-01T02:26:21;5.75;;;1.50;;
21675;SDS011;10999;51.332;9.458;2023-04-01T02:28:49;5.25;;;1.52;;
21675;SDS011;10999;51.332;9.458;2023-04-01T02:31:18;8.00;;;1.67;;
21675;SDS011;10999;51.332;9.458;2023-04-01T02:33:45;6.55;;;1.67;;
21675;SDS011;10999;51.332;9.458;2023-04-01T02:36:13;5.15;;;1.85;;
21675;SDS011;10999;51.332;9.458;2023-04-01T02:38:42;6.32;;;1.42;;
21675;SDS011;10999;51.332;9.458;2023-04-01T02:41:11;4.32;;;1.27;;
21675;SDS011;10999;51.332;9.458;2023-04-01T02:43:38;5.53;;;1.40;;
21675;SDS011;10999;51.332;9.458;2023-04-01T02:46:05;7.45;;;1.63;;
21675;SDS011;10999;51.332;9.458;2023-04-01T02:48:31;5.07;;;1.30;;
21675;SDS011;10999;51.332;9.458;2023-04-01T02:50:58;6.28;;;1.45;;
21675;SDS011;10999;51.332;9.458;2023-04-01T02:53:25;5.13;;;1.73;;
21675;SDS011;10999;51.332;9.458;2023-04-01T02:55:52;8.07;;;1.85;;
21675;SDS011;10999;51.332;9.458;2023-04-01T02:58:18;7.43;;;1.60;;
21675;SDS011;10999;51.332;9.458;2023-04-01T03:00:45;6.50;;;1.60;;
21675;SDS011;10999;51.332;9.458;2023-04-01T03:03:12;3.35;;;1.13;;
21675;SDS011;10999;51.332;9.458;2023-04-01T03:05:39;7.90;;;1.60;;
21675;SDS011;10999;51.332;9.458;2023-04-01T03:08:06;8.85;;;1.35;;
21675;SDS011;10999;51.332;9.458;2023-04-01T03:10:33;5.60;;;1.40;;
21675;SDS011;10999;51.332;9.458;2023-04-01T03:12:59;8.50;;;1.60;;
21675;SDS011;10999;51.332;9.458;2023-04-01T03:15:26;4.40;;;1.40;;
21675;SDS011;10999;51.332;9.458;2023-04-01T03:17:53;3.90;;;1.30;;
21675;SDS011;10999;51.332;9.458;2023-04-01T03:20:19;4.30;;;1.00;;
21675;SDS011;10999;51.332;9.458;2023-04-01T03:22:46;6.07;;;1.90;;
21675;SDS011;10999;51.332;9.458;2023-04-01T03:25:13;4.85;;;1.15;;
21675;SDS011;10999;51.332;9.458;2023-04-01T03:27:40;3.67;;;1.13;;
21675;SDS011;10999;51.332;9.458;2023-04-01T03:30:07;7.57;;;1.52;;
21675;SDS011;10999;51.332;9.458;2023-04-01T03:32:34;3.97;;;1.13;;
21675;SDS011;10999;51.332;9.458;2023-04-01T03:35:01;4.93;;;1.45;;
21675;SDS011;10999;51.332;9.458;2023-04-01T03:37:27;4.45;;;1.13;;
21675;SDS011;10999;51.332;9.458;2023-04-01T03:39:54;6.35;;;1.50;;
21675;SDS011;10999;51.332;9.458;2023-04-01T03:42:21;4.88;;;1.00;;
21675;SDS011;10999;51.332;9.458;2023-04-01T03:44:47;3.25;;;1.05;;
21675;SDS011;10999;51.332;9.458;2023-04-01T03:47:14;4.25;;;0.95;;
21675;SDS011;10999;51.332;9.458;2023-04-01T03:49:41;5.47;;;1.15;;
21675;SDS011;10999;51.332;9.458;2023-04-01T03:52:08;2.95;;;1.20;;
21675;SDS011;10999;51.332;9.458;2023-04-01T03:54:37;3.92;;;1.23;;
21675;SDS011;10999;51.332;9.458;2023-04-01T03:57:03;3.97;;;1.23;;
21675;SDS011;10999;51.332;9.458;2023-04-01T03:59:30;6.28;;;1.23;;
21675;SDS011;10999;51.332;9.458;2023-04-01T04:01:57;6.18;;;1.20;;
21675;SDS011;10999;51.332;9.458;2023-04-01T04:04:24;3.55;;;1.10;;
21675;SDS011;10999;51.332;9.458;2023-04-01T04:06:52;5.70;;;1.00;;
21675;SDS011;10999;51.332;9.458;2023-04-01T04:09:18;5.05;;;1.23;;
21675;SDS011;10999;51.332;9.458;2023-04-01T04:11:45;5.45;;;1.15;;
21675;SDS011;10999;51.332;9.458;2023-04-01T04:14:12;3.65;;;1.40;;
21675;SDS011;10999;51.332;9.458;2023-04-01T04:16:38;2.67;;;0.88;;
21675;SDS011;10999;51.332;9.458;2023-04-01T04:19:05;4.68;;;1.02;;
21675;SDS011;10999;51.332;9.458;2023-04-01T04:21:32;6.32;;;1.00;;
21675;SDS011;10999;51.332;9.458;2023-04-01T04:23:59;6.70;;;1.02;;
21675;SDS011;10999;51.332;9.458;2023-04-01T04:26:26;5.90;;;1.27;;
21675;SDS011;10999;51.332;9.458;2023-04-01T04:28:53;2.65;;;0.82;;
21675;SDS011;10999;51.332;9.458;2023-04-01T04:31:21;3.15;;;0.98;;
21675;SDS011;10999;51.332;9.458;2023-04-01T04:33:49;4.25;;;1.08;;
21675;SDS011;10999;51.332;9.458;2023-04-01T04:36:17;2.17;;;0.90;;
21675;SDS011;10999;51.332;9.458;2023-04-01T04:38:45;4.75;;;1.17;;
21675;SDS011;10999;51.332;9.458;2023-04-01T04:41:13;4.03;;;0.75;;
21675;SDS011;10999;51.332;9.458;2023-04-01T04:43:41;3.97;;;1.00;;
21675;SDS011;10999;51.332;9.458;2023-04-01T04:46:08;3.47;;;1.08;;
21675;SDS011;10999;51.332;9.458;2023-04-01T04:48:36;4.13;;;1.33;;
21675;SDS011;10999;51.332;9.458;2023-04-01T04:51:03;4.18;;;0.80;;
21675;SDS011;10999;51.332;9.458;2023-04-01T04:53:30;4.95;;;1.00;;
21675;SDS011;10999;51.332;9.458;2023-04-01T04:55:56;5.25;;;1.33;;
21675;SDS011;10999;51.332;9.458;2023-04-01T04:58:23;3.50;;;0.77;;
21675;SDS011;10999;51.332;9.458;2023-04-01T05:00:50;5.40;;;1.08;;
21675;SDS011;10999;51.332;9.458;2023-04-01T05:03:16;4.53;;;0.70;;
21675;SDS011;10999;51.332;9.458;2023-04-01T05:05:51;3.85;;;0.80;;
21675;SDS011;10999;51.332;9.458;2023-04-01T05:08:19;3.25;;;0.82;;
21675;SDS011;10999;51.332;9.458;2023-04-01T05:10:46;3.30;;;1.05;;
21675;SDS011;10999;51.332;9.458;2023-04-01T05:13:12;3.30;;;0.82;;
21675;SDS011;10999;51.332;9.458;2023-04-01T05:15:39;5.22;;;1.08;;
21675;SDS011;10999;51.332;9.458;2023-04-01T05:18:06;5.30;;;1.15;;
21675;SDS011;10999;51.332;9.458;2023-04-01T05:20:33;2.53;;;0.75;;
21675;SDS011;10999;51.332;9.458;2023-04-01T05:23:00;7.85;;;1.33;;
21675;SDS011;10999;51.332;9.458;2023-04-01T05:25:27;5.07;;;0.82;;
21675;SDS011;10999;51.332;9.458;2023-04-01T05:27:53;3.65;;;1.10;;
21675;SDS011;10999;51.332;9.458;2023-04-01T05:30:20;5.32;;;2.13;;
21675;SDS011;10999;51.332;9.458;2023-04-01T05:32:47;5.97;;;1.02;;
21675;SDS011;10999;51.332;9.458;2023-04-01T05:35:14;5.70;;;1.10;;
21675;SDS011;10999;51.332;9.458;2023-04-01T05:37:41;3.65;;;1.05;;
21675;SDS011;10999;51.332;9.458;2023-04-01T05:40:08;4.18;;;1.30;;
21675;SDS011;10999;51.332;9.458;2023-04-01T05:42:35;3.88;;;1.00;;
21675;SDS011;10999;51.332;9.458;2023-04-01T05:45:03;2.58;;;0.80;;
21675;SDS011;10999;51.332;9.458;2023-04-01T05:47:31;5.43;;;1.20;;
21675;SDS011;10999;51.332;9.458;2023-04-01T05:49:58;4.15;;;1.45;;
21675;SDS011;10999;51.332;9.458;2023-04-01T05:52:25;4.90;;;1.13;;
21675;SDS011;10999;51.332;9.458;2023-04-01T05:54:51;3.30;;;1.10;;
21675;SDS011;10999;51.332;9.458;2023-04-01T05:57:18;2.72;;;1.00;;
21675;SDS011;10999;51.332;9.458;2023-04-01T05:59:45;5.50;;;1.10;;
21675;SDS011;10999;51.332;9.458;2023-04-01T06:02:12;3.97;;;1.17;;
21675;SDS011;10999;51.332;9.458;2023-04-01T06:04:39;4.57;;;0.82;;
21675;SDS011;10999;51.332;9.458;2023-04-01T06:07:14;2.80;;;1.13;;
21675;SDS011;10999;51.332;9.458;2023-04-01T06:09:42;2.10;;;0.70;;
21675;SDS011;10999;51.332;9.458;2023-04-01T06:12:20;3.25;;;1.30;;
21675;SDS011;10999;51.332;9.458;2023-04-01T06:26:12;2.85;;;0.90;;
21675;SDS011;10999;51.332;9.458;2023-04-01T06:29:02;3.15;;;0.80;;
21675;SDS011;10999;51.332;9.458;2023-04-01T06:31:57;6.00;;;1.17;;
21675;SDS011;10999;51.332;9.458;2023-04-01T06:34:54;2.53;;;0.80;;
21675;SDS011;10999;51.332;9.458;2023-04-01T06:38:01;3.25;;;0.88;;
21675;SDS011;10999;51.332;9.458;2023-04-01T06:46:07;3.20;;;0.80;;
21675;SDS011;10999;51.332;9.458;2023-04-01T06:51:29;4.60;;;1.20;;
21675;SDS011;10999;51.332;9.458;2023-04-01T06:54:12;4.25;;;1.10;;
21675;SDS011;10999;51.332;9.458;2023-04-01T06:56:44;2.40;;;0.95;;
21675;SDS011;10999;51.332;9.458;2023-04-01T06:59:20;4.38;;;0.63;;
21675;SDS011;10999;51.332;9.458;2023-04-01T07:04:37;2.65;;;0.85;;
21675;SDS011;10999;51.332;9.458;2023-04-01T07:07:14;3.70;;;0.80;;
21675;SDS011;10999;51.332;9.458;2023-04-01T07:09:49;3.17;;;0.93;;
21675;SDS011;10999;51.332;9.458;2023-04-01T07:12:21;5.82;;;1.20;;
21675;SDS011;10999;51.332;9.458;2023-04-01T07:14:58;2.70;;;0.70;;
21675;SDS011;10999;51.332;9.458;2023-04-01T07:17:32;3.30;;;0.98;;
21675;SDS011;10999;51.332;9.458;2023-04-01T07:20:03;2.17;;;0.90;;
21675;SDS011;10999;51.332;9.458;2023-04-01T07:22:47;5.13;;;0.90;;
21675;SDS011;10999;51.332;9.458;2023-04-01T07:25:18;3.58;;;1.08;;
21675;SDS011;10999;51.332;9.458;2023-04-01T07:27:48;3.72;;;1.00;;
21675;SDS011;10999;51.332;9.458;2023-04-01T07:30:19;4.40;;;0.73;;
21675;SDS011;10999;51.332;9.458;2023-04-01T07:32:52;3.00;;;0.80;;
21675;SDS011;10999;51.332;9.458;2023-04-01T07:38:17;2.08;;;0.73;;
21675;SDS011;10999;51.332;9.458;2023-04-01T07:43:30;2.35;;;0.80;;
21675;SDS011;10999;51.332;9.458;2023-04-01T07:49:10;3.03;;;0.70;;
21675;SDS011;10999;51.332;9.458;2023-04-01T07:52:04;6.00;;;0.82;;
21675;SDS011;10999;51.332;9.458;2023-04-01T08:05:41;2.90;;;0.60;;
21675;SDS011;10999;51.332;9.458;2023-04-01T08:10:49;4.43;;;0.60;;
21675;SDS011;10999;51.332;9.458;2023-04-01T08:13:24;4.93;;;1.00;;
21675;SDS011;10999;51.332;9.458;2023-04-01T08:16:18;3.40;;;0.82;;
21675;SDS011;10999;51.332;9.458;2023-04-01T08:21:52;2.28;;;0.80;;
21675;SDS011;10999;51.332;9.458;2023-04-01T08:27:23;4.53;;;0.95;;
21675;SDS011;10999;51.332;9.458;2023-04-01T08:32:28;2.28;;;0.57;;
21675;SDS011;10999;51.332;9.458;2023-04-01T08:37:47;1.35;;;0.43;;
21675;SDS011;10999;51.332;9.458;2023-04-01T08:45:41;4.38;;;0.60;;
21675;SDS011;10999;51.332;9.458;2023-04-01T08:48:27;1.38;;;0.40;;
21675;SDS011;10999;51.332;9.458;2023-04-01T09:01:59;4.03;;;0.80;;
21675;SDS011;10999;51.332;9.458;2023-04-01T09:05:18;2.33;;;0.60;;
21675;SDS011;10999;51.332;9.458;2023-04-01T09:08:13;1.13;;;0.40;;
21675;SDS011;10999;51.332;9.458;2023-04-01T09:25:06;1.30;;;0.40;;
21675;SDS011;10999;51.332;9.458;2023-04-01T09:33:38;1.38;;;0.43;;
21675;SDS011;10999;51.332;9.458;2023-04-01T09:49:43;1.88;;;0.60;;
21675;SDS011;10999;51.332;9.458;2023-04-01T09:52:24;1.98;;;0.60;;
21675;SDS011;10999;51.332;9.458;2023-04-01T09:58:22;1.38;;;0.43;;
21675;SDS011;10999;51.332;9.458;2023-04-01T10:01:34;4.97;;;0.55;;
21675;SDS011;10999;51.332;9.458;2023-04-01T10:16:01;2.22;;;0.73;;
21675;SDS011;10999;51.332;9.458;2023-04-01T10:18:33;2.50;;;0.90;;
21675;SDS011;10999;51.332;9.458;2023-04-01T10:34:45;3.05;;;0.88;;
21675;SDS011;10999;51.332;9.458;2023-04-01T10:45:18;1.45;;;0.63;;
21675;SDS011;10999;51.332;9.458;2023-04-01T10:57:55;3.13;;;0.80;;
21675;SDS011;10999;51.332;9.458;2023-04-01T11:17:23;4.13;;;1.10;;
21675;SDS011;10999;51.332;9.458;2023-04-01T11:20:28;2.15;;;0.80;;
21675;SDS011;10999;51.332;9.458;2023-04-01T11:23:36;1.42;;;0.60;;
21675;SDS011;10999;51.332;9.458;2023-04-01T11:26:33;2.72;;;0.65;;
21675;SDS011;10999;51.332;9.458;2023-04-01T11:29:25;4.68;;;0.68;;
21675;SDS011;10999;51.332;9.458;2023-04-01T11:41:01;0.88;;;0.40;;
21675;SDS011;10999;51.332;9.458;2023-04-01T11:55:22;2.15;;;0.55;;
21675;SDS011;10999;51.332;9.458;2023-04-01T11:58:31;2.15;;;0.73;;
21675;SDS011;10999;51.332;9.458;2023-04-01T12:01:25;2.75;;;0.73;;
21675;SDS011;10999;51.332;9.458;2023-04-01T12:18:13;1.40;;;0.70;;
21675;SDS011;10999;51.332;9.458;2023-04-01T12:26:33;1.85;;;0.65;;
21675;SDS011;10999;51.332;9.458;2023-04-01T12:32:23;1.58;;;0.70;;
21675;SDS011;10999;51.332;9.458;2023-04-01T12:40:31;1.25;;;0.40;;
21675;SDS011;10999;51.332;9.458;2023-04-01T13:08:10;2.00;;;0.60;;
21675;SDS011;10999;51.332;9.458;2023-04-01T13:10:58;0.65;;;0.32;;
21675;SDS011;10999;51.332;9.458;2023-04-01T13:13:55;1.02;;;0.50;;
21675;SDS011;10999;51.332;9.458;2023-04-01T13:16:39;1.85;;;0.57;;
21675;SDS011;10999;51.332;9.458;2023-04-01T13:21:53;2.35;;;0.70;;
21675;SDS011;10999;51.332;9.458;2023-04-01T13:35:18;1.80;;;0.60;;
21675;SDS011;10999;51.332;9.458;2023-04-01T13:37:54;1.48;;;0.60;;
21675;SDS011;10999;51.332;9.458;2023-04-01T13:43:40;3.17;;;0.68;;
21675;SDS011;10999;51.332;9.458;2023-04-01T13:46:16;1.55;;;0.60;;
21675;SDS011;10999;51.332;9.458;2023-04-01T13:51:55;2.38;;;0.52;;
21675;SDS011;10999;51.332;9.458;2023-04-01T13:57:14;1.10;;;0.68;;
21675;SDS011;10999;51.332;9.458;2023-04-01T14:00:03;1.80;;;0.85;;
21675;SDS011;10999;51.332;9.458;2023-04-01T14:11:13;2.70;;;0.55;;
21675;SDS011;10999;51.332;9.458;2023-04-01T14:19:22;1.52;;;0.70;;
21675;SDS011;10999;51.332;9.458;2023-04-01T14:22:18;2.28;;;0.60;;
21675;SDS011;10999;51.332;9.458;2023-04-01T14:30:36;2.80;;;0.70;;
21675;SDS011;10999;51.332;9.458;2023-04-01T14:39:00;5.00;;;1.10;;
21675;SDS011;10999;51.332;9.458;2023-04-01T14:44:58;1.85;;;0.57;;
21675;SDS011;10999;51.332;9.458;2023-04-01T14:50:54;3.13;;;1.15;;
21675;SDS011;10999;51.332;9.458;2023-04-01T14:55:56;3.33;;;0.77;;
21675;SDS011;10999;51.332;9.458;2023-04-01T14:58:38;1.83;;;0.52;;
21675;SDS011;10999;51.332;9.458;2023-04-01T15:01:25;1.52;;;0.70;;
21675;SDS011;10999;51.332;9.458;2023-04-01T15:04:31;1.83;;;0.70;;
21675;SDS011;10999;51.332;9.458;2023-04-01T15:13:11;2.95;;;0.90;;
21675;SDS011;10999;51.332;9.458;2023-04-01T15:40:24;3.80;;;0.90;;
21675;SDS011;10999;51.332;9.458;2023-04-01T15:46:14;2.83;;;1.00;;
21675;SDS011;10999;51.332;9.458;2023-04-01T15:51:40;1.88;;;1.08;;
21675;SDS011;10999;51.332;9.458;2023-04-01T17:02:01;1.50;;;0.40;;
21675;SDS011;10999;51.332;9.458;2023-04-01T17:11:18;2.20;;;0.70;;
21675;SDS011;10999;51.332;9.458;2023-04-01T17:14:12;1.80;;;0.70;;
21675;SDS011;10999;51.332;9.458;2023-04-01T17:23:24;2.10;;;0.68;;
21675;SDS011;10999;51.332;9.458;2023-04-01T17:26:28;3.13;;;0.85;;
21675;SDS011;10999;51.332;9.458;2023-04-01T17:29:18;4.18;;;1.27;;
21675;SDS011;10999;51.332;9.458;2023-04-01T17:32:06;4.15;;;1.45;;
21675;SDS011;10999;51.332;9.458;2023-04-01T17:35:06;3.50;;;1.30;;
21675;SDS011;10999;51.332;9.458;2023-04-01T17:45:31;5.47;;;2.35;;
21675;SDS011;10999;51.332;9.458;2023-04-01T17:48:17;9.25;;;3.67;;
21675;SDS011;10999;51.332;9.458;2023-04-01T17:56:20;6.75;;;3.22;;
21675;SDS011;10999;51.332;9.458;2023-04-01T17:59:13;6.97;;;3.08;;
21675;SDS011;10999;51.332;9.458;2023-04-01T18:01:53;7.93;;;3.45;;
21675;SDS011;10999;51.332;9.458;2023-04-01T18:07:35;10.00;;;4.18;;
21675;SDS011;10999;51.332;9.458;2023-04-01T18:10:28;7.97;;;3.72;;
21675;SDS011;10999;51.332;9.458;2023-04-01T18:16:12;7.47;;;3.38;;
21675;SDS011;10999;51.332;9.458;2023-04-01T18:18:48;7.80;;;3.10;;
21675;SDS011;10999;51.332;9.458;2023-04-01T18:21:35;6.55;;;2.92;;
21675;SDS011;10999;51.332;9.458;2023-04-01T18:24:14;8.15;;;3.33;;
21675;SDS011;10999;51.332;9.458;2023-04-01T18:26:49;10.23;;;4.35;;
21675;SDS011;10999;51.332;9.458;2023-04-01T18:34:52;9.27;;;4.03;;
21675;SDS011;10999;51.332;9.458;2023-04-01T18:37:59;6.15;;;2.92;;
21675;SDS011;10999;51.332;9.458;2023-04-01T18:40:36;7.85;;;3.17;;
21675;SDS011;10999;51.332;9.458;2023-04-01T18:46:20;8.10;;;3.03;;
21675;SDS011;10999;51.332;9.458;2023-04-01T18:49:06;8.25;;;4.00;;
21675;SDS011;10999;51.332;9.458;2023-04-01T18:51:39;11.38;;;5.15;;
21675;SDS011;10999;51.332;9.458;2023-04-01T18:54:22;11.50;;;4.78;;
21675;SDS011;10999;51.332;9.458;2023-04-01T18:57:03;12.43;;;5.78;;
21675;SDS011;10999;51.332;9.458;2023-04-01T18:59:45;11.57;;;5.57;;
21675;SDS011;10999;51.332;9.458;2023-04-01T19:02:21;13.07;;;6.40;;
21675;SDS011;10999;51.332;9.458;2023-04-01T19:05:19;13.38;;;6.15;;
21675;SDS011;10999;51.332;9.458;2023-04-01T19:08:33;9.13;;;4.03;;
21675;SDS011;10999;51.332;9.458;2023-04-01T19:13:27;7.40;;;3.47;;
21675;SDS011;10999;51.332;9.458;2023-04-01T19:16:26;9.30;;;3.70;;
21675;SDS011;10999;51.332;9.458;2023-04-01T19:19:09;7.75;;;3.75;;
21675;SDS011;10999;51.332;9.458;2023-04-01T19:22:13;8.18;;;3.00;;
21675;SDS011;10999;51.332;9.458;2023-04-01T19:27:51;7.75;;;3.25;;
21675;SDS011;10999;51.332;9.458;2023-04-01T19:36:25;8.57;;;3.30;;
21675;SDS011;10999;51.332;9.458;2023-04-01T19:41:43;5.95;;;3.05;;
21675;SDS011;10999;51.332;9.458;2023-04-01T19:52:47;5.68;;;2.15;;
21675;SDS011;10999;51.332;9.458;2023-04-01T19:58:26;7.65;;;3.00;;
21675;SDS011;10999;51.332;9.458;2023-04-01T20:01:00;10.57;;;4.82;;
21675;SDS011;10999;51.332;9.458;2023-04-01T20:03:32;11.75;;;5.38;;
21675;SDS011;10999;51.332;9.458;2023-04-01T20:06:22;8.50;;;3.83;;
21675;SDS011;10999;51.332;9.458;2023-04-01T20:11:59;10.35;;;3.72;;
21675;SDS011;10999;51.332;9.458;2023-04-01T20:14:51;7.45;;;2.95;;
21675;SDS011;10999;51.332;9.458;2023-04-01T20:22:51;5.95;;;2.65;;
21675;SDS011;10999;51.332;9.458;2023-04-01T20:28:44;7.80;;;2.65;;
21675;SDS011;10999;51.332;9.458;2023-04-01T20:31:43;4.53;;;2.45;;
21675;SDS011;10999;51.332;9.458;2023-04-01T20:34:22;4.93;;;2.40;;
21675;SDS011;10999;51.332;9.458;2023-04-01T20:37:16;7.22;;;2.20;;
21675;SDS011;10999;51.332;9.458;2023-04-01T20:50:29;4.93;;;2.15;;
21675;SDS011;10999;51.332;9.458;2023-04-01T20:53:20;8.73;;;2.22;;
21675;SDS011;10999;51.332;9.458;2023-04-01T21:01:39;6.30;;;2.58;;
21675;SDS011;10999;51.332;9.458;2023-04-01T21:10:03;6.30;;;3.03;;
21675;SDS011;10999;51.332;9.458;2023-04-01T21:12:49;5.15;;;2.05;;
21675;SDS011;10999;51.332;9.458;2023-04-01T21:15:41;4.85;;;1.90;;
21675;SDS011;10999;51.332;9.458;2023-04-01T21:18:33;5.15;;;2.10;;
21675;SDS011;10999;51.332;9.458;2023-04-01T21:21:40;4.35;;;1.85;;
21675;SDS011;10999;51.332;9.458;2023-04-01T21:24:42;6.00;;;2.42;;
21675;SDS011;10999;51.332;9.458;2023-04-01T21:27:28;7.93;;;2.75;;
21675;SDS011;10999;51.332;9.458;2023-04-01T21:35:40;5.78;;;2.28;;
21675;SDS011;10999;51.332;9.458;2023-04-01T21:41:08;4.07;;;1.77;;
21675;SDS011;10999;51.332;9.458;2023-04-01T21:43:57;5.32;;;1.98;;
21675;SDS011;10999;51.332;9.458;2023-04-01T21:49:47;1.50;;;0.50;;
21675;SDS011;10999;51.332;9.458;2023-04-01T22:06:40;2.97;;;0.73;;
21675;SDS011;10999;51.332;9.458;2023-04-01T22:09:39;2.17;;;0.73;;
21675;SDS011;10999;51.332;9.458;2023-04-01T22:24:20;3.38;;;0.90;;
21675;SDS011;10999;51.332;9.458;2023-04-01T22:30:14;2.75;;;0.68;;
21675;SDS011;10999;51.332;9.458;2023-04-01T22:32:52;3.00;;;1.10;;
21675;SDS011;10999;51.332;9.458;2023-04-01T22:38:51;4.25;;;1.30;;
21675;SDS011;10999;51.332;9.458;2023-04-01T22:41:33;2.95;;;1.05;;
21675;SDS011;10999;51.332;9.458;2023-04-01T22:44:27;2.03;;;0.90;;
21675;SDS011;10999;51.332;9.458;2023-04-01T22:47:04;4.05;;;0.95;;
21675;SDS011;10999;51.332;9.458;2023-04-01T22:55:08;5.03;;;0.95;;
21675;SDS011;10999;51.332;9.458;2023-04-01T22:57:49;1.63;;;0.80;;
21675;SDS011;10999;51.332;9.458;2023-04-01T23:00:32;2.58;;;0.98;;
21675;SDS011;10999;51.332;9.458;2023-04-01T23:03:18;1.58;;;0.80;;
21675;SDS011;10999;51.332;9.458;2023-04-01T23:05:54;3.13;;;0.88;;
21675;SDS011;10999;51.332;9.458;2023-04-01T23:08:30;1.17;;;0.55;;
21675;SDS011;10999;51.332;9.458;2023-04-01T23:13:48;2.45;;;0.73;;
21675;SDS011;10999;51.332;9.458;2023-04-01T23:16:29;2.22;;;0.70;;
21675;SDS011;10999;51.332;9.458;2023-04-01T23:22:09;1.23;;;0.50;;
21675;SDS011;10999;51.332;9.458;2023-04-01T23:25:10;1.58;;;0.60;;
21675;SDS011;10999;51.332;9.458;2023-04-01T23:27:51;1.55;;;0.50;;
21675;SDS011;10999;51.332;9.458;2023-04-01T23:31:00;0.73;;;0.45;;
21675;SDS011;10999;51.332;9.458;2023-04-01T23:33:36;1.60;;;0.45;;
21675;SDS011;10999;51.332;9.458;2023-04-01T23:36:40;2.22;;;0.77;;
21675;SDS011;10999;51.332;9.458;2023-04-01T23:40:12;2.33;;;0.70;;
21675;SDS011;10999;51.332;9.458;2023-04-01T23:43:41;1.42;;;0.55;;
21675;SDS011;10999;51.332;9.458;2023-04-01T23:47:14;2.40;;;0.50;;
21675;SDS011;10999;51.332;9.458;2023-04-01T23:50:26;0.80;;;0.38;;
21675;SDS011;10999;51.332;9.458;2023-04-01T23:53:41;1.05;;;0.38;;
21675;SDS011;10999;51.332;9.458;2023-04-01T23:56:56;2.15;;;0.60;;
21675;SDS011;10999;51.332;9.458;2023-04-01T23:59:32;1.80;;;0.52;;
